sensor_id;sensor_type;location;lat;lon;timestamp;P1;durP1;ratioP1;P2;durP2;ratioP2
46222;SDS011;31943;51.410;7.564;2023-08-01T00:02:18;0.68;;;0.50;;
46222;SDS011;31943;51.410;7.564;2023-08-01T00:04:44;2.00;;;0.50;;
46222;SDS011;31943;51.410;7.564;2023-08-01T00:07:10;2.05;;;0.55;;
46222;SDS011;31943;51.410;7.564;2023-08-01T00:09:36;0.65;;;0.40;;
46222;SDS011;31943;51.410;7.564;2023-08-01T00:12:02;2.45;;;0.47;;
46222;SDS011;31943;51.410;7.564;2023-08-01T00:14:29;0.70;;;0.40;;
46222;SDS011;31943;51.410;7.564;2023-08-01T00:16:57;1.67;;;0.40;;
46222;SDS011;31943;51.410;7.564;2023-08-01T00:19:22;1.58;;;0.38;;
46222;SDS011;31943;51.410;7.564;2023-08-01T00:21:49;1.90;;;0.30;;
46222;SDS011;31943;51.410;7.564;2023-08-01T00:24:15;0.80;;;0.35;;
46222;SDS011;31943;51.410;7.564;2023-08-01T00:26:41;1.45;;;0.40;;
46222;SDS011;31943;51.410;7.564;2023-08-01T00:29:06;0.55;;;0.32;;
46222;SDS011;31943;51.410;7.564;2023-08-01T00:31:32;1.10;;;0.38;;
46222;SDS011;31943;51.410;7.564;2023-08-01T00:34:02;0.85;;;0.30;;
46222;SDS011;31943;51.410;7.564;2023-08-01T00:36:27;1.50;;;0.30;;
46222;SDS011;31943;51.410;7.564;2023-08-01T00:38:53;0.40;;;0.20;;
46222;SDS011;31943;51.410;7.564;2023-08-01T00:41:19;0.80;;;0.35;;
46222;SDS011;31943;51.410;7.564;2023-08-01T00:43:45;2.60;;;0.30;;
46222;SDS011;31943;51.410;7.564;2023-08-01T00:46:11;0.32;;;0.30;;
46222;SDS011;31943;51.410;7.564;2023-08-01T00:48:36;0.85;;;0.38;;
46222;SDS011;31943;51.410;7.564;2023-08-01T00:51:05;0.77;;;0.20;;
46222;SDS011;31943;51.410;7.564;2023-08-01T00:53:32;0.90;;;0.25;;
46222;SDS011;31943;51.410;7.564;2023-08-01T00:55:59;1.00;;;0.30;;
46222;SDS011;31943;51.410;7.564;2023-08-01T00:58:25;4.60;;;0.47;;
46222;SDS011;31943;51.410;7.564;2023-08-01T01:00:51;0.35;;;0.28;;
46222;SDS011;31943;51.410;7.564;2023-08-01T01:03:17;0.30;;;0.30;;
46222;SDS011;31943;51.410;7.564;2023-08-01T01:05:46;1.60;;;0.40;;
46222;SDS011;31943;51.410;7.564;2023-08-01T01:08:20;0.95;;;0.20;;
46222;SDS011;31943;51.410;7.564;2023-08-01T01:10:46;0.20;;;0.20;;
46222;SDS011;31943;51.410;7.564;2023-08-01T01:13:11;4.03;;;0.38;;
46222;SDS011;31943;51.410;7.564;2023-08-01T01:15:37;2.65;;;0.30;;
46222;SDS011;31943;51.410;7.564;2023-08-01T01:18:04;2.50;;;0.20;;
46222;SDS011;31943;51.410;7.564;2023-08-01T01:20:33;1.17;;;0.28;;
46222;SDS011;31943;51.410;7.564;2023-08-01T01:23:01;0.20;;;0.20;;
46222;SDS011;31943;51.410;7.564;2023-08-01T01:25:28;0.80;;;0.25;;
46222;SDS011;31943;51.410;7.564;2023-08-01T01:27:55;0.63;;;0.20;;
46222;SDS011;31943;51.410;7.564;2023-08-01T01:30:22;0.10;;;0.00;;
46222;SDS011;31943;51.410;7.564;2023-08-01T01:32:47;0.47;;;0.10;;
46222;SDS011;31943;51.410;7.564;2023-08-01T01:35:14;1.70;;;0.20;;
46222;SDS011;31943;51.410;7.564;2023-08-01T01:37:41;0.55;;;0.10;;
46222;SDS011;31943;51.410;7.564;2023-08-01T01:40:08;0.25;;;0.10;;
46222;SDS011;31943;51.410;7.564;2023-08-01T01:42:35;0.20;;;0.10;;
46222;SDS011;31943;51.410;7.564;2023-08-01T01:45:00;0.32;;;0.13;;
46222;SDS011;31943;51.410;7.564;2023-08-01T01:47:26;0.20;;;0.20;;
46222;SDS011;31943;51.410;7.564;2023-08-01T01:49:52;1.27;;;0.20;;
46222;SDS011;31943;51.410;7.564;2023-08-01T01:52:19;1.55;;;0.20;;
46222;SDS011;31943;51.410;7.564;2023-08-01T01:54:48;0.40;;;0.30;;
46222;SDS011;31943;51.410;7.564;2023-08-01T01:57:13;0.63;;;0.30;;
46222;SDS011;31943;51.410;7.564;2023-08-01T01:59:39;1.05;;;0.40;;
46222;SDS011;31943;51.410;7.564;2023-08-01T02:02:06;1.27;;;0.20;;
46222;SDS011;31943;51.410;7.564;2023-08-01T02:04:32;0.30;;;0.17;;
46222;SDS011;31943;51.410;7.564;2023-08-01T02:06:59;1.85;;;0.20;;
46222;SDS011;31943;51.410;7.564;2023-08-01T02:09:25;0.95;;;0.30;;
46222;SDS011;31943;51.410;7.564;2023-08-01T02:11:52;1.27;;;0.20;;
46222;SDS011;31943;51.410;7.564;2023-08-01T02:14:18;0.65;;;0.20;;
46222;SDS011;31943;51.410;7.564;2023-08-01T02:16:44;0.40;;;0.13;;
46222;SDS011;31943;51.410;7.564;2023-08-01T02:19:10;0.55;;;0.10;;
46222;SDS011;31943;51.410;7.564;2023-08-01T02:21:37;0.65;;;0.38;;
46222;SDS011;31943;51.410;7.564;2023-08-01T02:24:04;2.13;;;0.20;;
46222;SDS011;31943;51.410;7.564;2023-08-01T02:26:30;1.20;;;0.30;;
46222;SDS011;31943;51.410;7.564;2023-08-01T02:28:57;2.30;;;0.40;;
46222;SDS011;31943;51.410;7.564;2023-08-01T02:31:24;1.38;;;0.30;;
46222;SDS011;31943;51.410;7.564;2023-08-01T02:33:51;0.88;;;0.40;;
46222;SDS011;31943;51.410;7.564;2023-08-01T02:36:17;1.15;;;0.50;;
46222;SDS011;31943;51.410;7.564;2023-08-01T02:38:43;0.70;;;0.50;;
46222;SDS011;31943;51.410;7.564;2023-08-01T02:41:10;1.60;;;0.50;;
46222;SDS011;31943;51.410;7.564;2023-08-01T02:43:35;1.08;;;0.65;;
46222;SDS011;31943;51.410;7.564;2023-08-01T02:46:04;1.35;;;0.60;;
46222;SDS011;31943;51.410;7.564;2023-08-01T02:48:31;1.75;;;0.57;;
46222;SDS011;31943;51.410;7.564;2023-08-01T02:50:57;2.40;;;0.70;;
46222;SDS011;31943;51.410;7.564;2023-08-01T02:53:24;1.63;;;0.40;;
46222;SDS011;31943;51.410;7.564;2023-08-01T02:55:50;1.85;;;0.70;;
46222;SDS011;31943;51.410;7.564;2023-08-01T02:58:15;1.50;;;1.40;;
46222;SDS011;31943;51.410;7.564;2023-08-01T03:00:41;2.17;;;1.67;;
46222;SDS011;31943;51.410;7.564;2023-08-01T03:03:08;3.97;;;2.20;;
46222;SDS011;31943;51.410;7.564;2023-08-01T03:05:35;3.25;;;1.83;;
46222;SDS011;31943;51.410;7.564;2023-08-01T03:08:01;4.88;;;2.20;;
46222;SDS011;31943;51.410;7.564;2023-08-01T03:10:26;2.70;;;1.70;;
46222;SDS011;31943;51.410;7.564;2023-08-01T03:12:52;4.93;;;1.90;;
46222;SDS011;31943;51.410;7.564;2023-08-01T03:15:18;1.88;;;1.67;;
46222;SDS011;31943;51.410;7.564;2023-08-01T03:17:44;3.88;;;2.10;;
46222;SDS011;31943;51.410;7.564;2023-08-01T03:20:12;2.85;;;2.00;;
46222;SDS011;31943;51.410;7.564;2023-08-01T03:22:39;6.20;;;2.53;;
46222;SDS011;31943;51.410;7.564;2023-08-01T03:25:06;4.95;;;2.20;;
46222;SDS011;31943;51.410;7.564;2023-08-01T03:27:32;5.15;;;3.13;;
46222;SDS011;31943;51.410;7.564;2023-08-01T03:29:59;3.05;;;2.40;;
46222;SDS011;31943;51.410;7.564;2023-08-01T03:32:25;5.03;;;2.95;;
46222;SDS011;31943;51.410;7.564;2023-08-01T03:34:51;3.38;;;2.67;;
46222;SDS011;31943;51.410;7.564;2023-08-01T03:37:18;4.38;;;2.55;;
46222;SDS011;31943;51.410;7.564;2023-08-01T03:39:44;4.78;;;2.80;;
46222;SDS011;31943;51.410;7.564;2023-08-01T03:42:11;8.45;;;3.95;;
46222;SDS011;31943;51.410;7.564;2023-08-01T03:44:37;6.78;;;4.50;;
46222;SDS011;31943;51.410;7.564;2023-08-01T03:47:02;7.60;;;4.95;;
46222;SDS011;31943;51.410;7.564;2023-08-01T03:49:28;6.15;;;5.55;;
46222;SDS011;31943;51.410;7.564;2023-08-01T03:51:54;7.90;;;7.07;;
46222;SDS011;31943;51.410;7.564;2023-08-01T03:54:22;8.95;;;6.00;;
46222;SDS011;31943;51.410;7.564;2023-08-01T03:56:47;7.55;;;5.93;;
46222;SDS011;31943;51.410;7.564;2023-08-01T03:59:14;6.18;;;5.55;;
46222;SDS011;31943;51.410;7.564;2023-08-01T04:01:40;8.32;;;6.20;;
46222;SDS011;31943;51.410;7.564;2023-08-01T04:04:07;9.30;;;6.78;;
46222;SDS011;31943;51.410;7.564;2023-08-01T04:06:33;7.50;;;6.80;;
46222;SDS011;31943;51.410;7.564;2023-08-01T04:08:59;12.73;;;8.38;;
46222;SDS011;31943;51.410;7.564;2023-08-01T04:11:26;11.73;;;10.05;;
46222;SDS011;31943;51.410;7.564;2023-08-01T04:13:52;13.43;;;9.82;;
46222;SDS011;31943;51.410;7.564;2023-08-01T04:16:19;12.38;;;10.63;;
46222;SDS011;31943;51.410;7.564;2023-08-01T04:18:47;12.00;;;10.68;;
46222;SDS011;31943;51.410;7.564;2023-08-01T04:21:14;11.00;;;9.93;;
46222;SDS011;31943;51.410;7.564;2023-08-01T04:23:41;13.05;;;11.52;;
46222;SDS011;31943;51.410;7.564;2023-08-01T04:26:07;11.00;;;9.93;;
46222;SDS011;31943;51.410;7.564;2023-08-01T04:28:36;11.63;;;10.55;;
46222;SDS011;31943;51.410;7.564;2023-08-01T04:31:02;12.20;;;10.30;;
46222;SDS011;31943;51.410;7.564;2023-08-01T04:33:28;13.65;;;11.25;;
46222;SDS011;31943;51.410;7.564;2023-08-01T04:35:55;13.68;;;11.23;;
46222;SDS011;31943;51.410;7.564;2023-08-01T04:38:21;13.98;;;12.57;;
46222;SDS011;31943;51.410;7.564;2023-08-01T04:40:48;16.13;;;11.23;;
46222;SDS011;31943;51.410;7.564;2023-08-01T04:43:13;12.48;;;10.32;;
46222;SDS011;31943;51.410;7.564;2023-08-01T04:45:43;11.18;;;9.23;;
46222;SDS011;31943;51.410;7.564;2023-08-01T04:48:10;13.63;;;9.02;;
46222;SDS011;31943;51.410;7.564;2023-08-01T04:50:36;12.95;;;9.43;;
46222;SDS011;31943;51.410;7.564;2023-08-01T04:53:01;11.52;;;8.00;;
46222;SDS011;31943;51.410;7.564;2023-08-01T04:55:27;9.65;;;7.55;;
46222;SDS011;31943;51.410;7.564;2023-08-01T04:57:54;11.98;;;7.32;;
46222;SDS011;31943;51.410;7.564;2023-08-01T05:00:21;11.63;;;6.95;;
46222;SDS011;31943;51.410;7.564;2023-08-01T05:02:48;14.23;;;7.50;;
46222;SDS011;31943;51.410;7.564;2023-08-01T05:05:14;9.60;;;5.43;;
46222;SDS011;31943;51.410;7.564;2023-08-01T05:07:41;8.75;;;6.05;;
46222;SDS011;31943;51.410;7.564;2023-08-01T05:10:10;8.57;;;5.95;;
46222;SDS011;31943;51.410;7.564;2023-08-01T05:12:37;11.35;;;6.40;;
46222;SDS011;31943;51.410;7.564;2023-08-01T05:15:05;9.35;;;7.40;;
46222;SDS011;31943;51.410;7.564;2023-08-01T05:17:31;11.90;;;7.95;;
46222;SDS011;31943;51.410;7.564;2023-08-01T05:19:58;11.38;;;7.82;;
46222;SDS011;31943;51.410;7.564;2023-08-01T05:22:26;15.25;;;8.60;;
46222;SDS011;31943;51.410;7.564;2023-08-01T05:24:51;13.93;;;9.25;;
46222;SDS011;31943;51.410;7.564;2023-08-01T05:27:17;10.68;;;9.60;;
46222;SDS011;31943;51.410;7.564;2023-08-01T05:29:43;10.70;;;8.70;;
46222;SDS011;31943;51.410;7.564;2023-08-01T05:32:10;14.50;;;10.20;;
46222;SDS011;31943;51.410;7.564;2023-08-01T05:34:37;14.88;;;9.85;;
46222;SDS011;31943;51.410;7.564;2023-08-01T05:37:05;13.82;;;9.75;;
46222;SDS011;31943;51.410;7.564;2023-08-01T05:39:31;12.93;;;10.05;;
46222;SDS011;31943;51.410;7.564;2023-08-01T05:41:57;13.23;;;8.98;;
46222;SDS011;31943;51.410;7.564;2023-08-01T05:44:24;14.18;;;9.35;;
46222;SDS011;31943;51.410;7.564;2023-08-01T05:46:50;11.77;;;8.40;;
46222;SDS011;31943;51.410;7.564;2023-08-01T05:49:15;13.55;;;9.70;;
46222;SDS011;31943;51.410;7.564;2023-08-01T05:51:41;12.48;;;9.05;;
46222;SDS011;31943;51.410;7.564;2023-08-01T05:54:10;12.60;;;8.45;;
46222;SDS011;31943;51.410;7.564;2023-08-01T05:56:36;13.70;;;8.38;;
46222;SDS011;31943;51.410;7.564;2023-08-01T05:59:03;10.50;;;8.20;;
46222;SDS011;31943;51.410;7.564;2023-08-01T06:01:28;10.30;;;7.50;;
46222;SDS011;31943;51.410;7.564;2023-08-01T06:03:54;10.20;;;7.22;;
46222;SDS011;31943;51.410;7.564;2023-08-01T06:06:20;13.55;;;8.57;;
46222;SDS011;31943;51.410;7.564;2023-08-01T06:08:47;11.48;;;7.47;;
46222;SDS011;31943;51.410;7.564;2023-08-01T06:11:14;9.45;;;7.43;;
46222;SDS011;31943;51.410;7.564;2023-08-01T06:13:40;11.98;;;7.57;;
46222;SDS011;31943;51.410;7.564;2023-08-01T06:16:06;12.15;;;8.45;;
46222;SDS011;31943;51.410;7.564;2023-08-01T06:18:33;11.00;;;8.32;;
46222;SDS011;31943;51.410;7.564;2023-08-01T06:21:00;11.60;;;8.73;;
46222;SDS011;31943;51.410;7.564;2023-08-01T06:23:26;15.43;;;9.63;;
46222;SDS011;31943;51.410;7.564;2023-08-01T06:25:53;14.40;;;9.70;;
46222;SDS011;31943;51.410;7.564;2023-08-01T06:28:20;12.05;;;10.32;;
46222;SDS011;31943;51.410;7.564;2023-08-01T06:30:46;13.20;;;10.25;;
46222;SDS011;31943;51.410;7.564;2023-08-01T06:33:12;14.63;;;9.75;;
46222;SDS011;31943;51.410;7.564;2023-08-01T06:35:37;11.70;;;10.02;;
46222;SDS011;31943;51.410;7.564;2023-08-01T06:38:03;16.35;;;12.00;;
46222;SDS011;31943;51.410;7.564;2023-08-01T06:40:30;11.85;;;10.02;;
46222;SDS011;31943;51.410;7.564;2023-08-01T06:42:57;15.07;;;10.02;;
46222;SDS011;31943;51.410;7.564;2023-08-01T06:45:25;15.77;;;10.52;;
46222;SDS011;31943;51.410;7.564;2023-08-01T06:47:51;12.90;;;10.18;;
46222;SDS011;31943;51.410;7.564;2023-08-01T06:50:17;13.18;;;9.85;;
46222;SDS011;31943;51.410;7.564;2023-08-01T06:52:43;14.18;;;9.25;;
46222;SDS011;31943;51.410;7.564;2023-08-01T06:55:08;15.40;;;9.75;;
46222;SDS011;31943;51.410;7.564;2023-08-01T06:57:35;12.93;;;10.20;;
46222;SDS011;31943;51.410;7.564;2023-08-01T07:00:00;11.90;;;8.98;;
46222;SDS011;31943;51.410;7.564;2023-08-01T07:02:29;13.30;;;9.35;;
46222;SDS011;31943;51.410;7.564;2023-08-01T07:04:54;11.68;;;9.05;;
46222;SDS011;31943;51.410;7.564;2023-08-01T07:07:21;17.60;;;10.13;;
46222;SDS011;31943;51.410;7.564;2023-08-01T07:09:47;11.23;;;8.88;;
46222;SDS011;31943;51.410;7.564;2023-08-01T07:12:12;12.52;;;8.80;;
46222;SDS011;31943;51.410;7.564;2023-08-01T07:14:39;12.93;;;9.30;;
46222;SDS011;31943;51.410;7.564;2023-08-01T07:17:05;10.75;;;8.55;;
46222;SDS011;31943;51.410;7.564;2023-08-01T07:19:32;13.77;;;9.75;;
46222;SDS011;31943;51.410;7.564;2023-08-01T07:21:59;13.80;;;9.60;;
46222;SDS011;31943;51.410;7.564;2023-08-01T07:24:25;12.93;;;8.65;;
46222;SDS011;31943;51.410;7.564;2023-08-01T07:26:51;14.10;;;9.63;;
46222;SDS011;31943;51.410;7.564;2023-08-01T07:29:16;12.75;;;9.00;;
46222;SDS011;31943;51.410;7.564;2023-08-01T07:31:42;15.43;;;9.15;;
46222;SDS011;31943;51.410;7.564;2023-08-01T07:34:09;13.30;;;9.27;;
46222;SDS011;31943;51.410;7.564;2023-08-01T07:36:36;12.23;;;8.80;;
46222;SDS011;31943;51.410;7.564;2023-08-01T07:39:01;12.02;;;9.07;;
46222;SDS011;31943;51.410;7.564;2023-08-01T07:41:28;12.00;;;8.23;;
46222;SDS011;31943;51.410;7.564;2023-08-01T07:43:54;10.50;;;8.10;;
46222;SDS011;31943;51.410;7.564;2023-08-01T07:46:20;10.82;;;7.18;;
46222;SDS011;31943;51.410;7.564;2023-08-01T07:48:46;9.88;;;7.45;;
46222;SDS011;31943;51.410;7.564;2023-08-01T07:51:12;11.50;;;7.35;;
46222;SDS011;31943;51.410;7.564;2023-08-01T07:53:40;9.55;;;7.22;;
46222;SDS011;31943;51.410;7.564;2023-08-01T07:56:08;10.10;;;7.85;;
46222;SDS011;31943;51.410;7.564;2023-08-01T07:58:33;11.27;;;6.90;;
46222;SDS011;31943;51.410;7.564;2023-08-01T08:01:02;10.10;;;7.40;;
46222;SDS011;31943;51.410;7.564;2023-08-01T08:03:28;9.00;;;6.43;;
46222;SDS011;31943;51.410;7.564;2023-08-01T08:05:53;11.18;;;7.30;;
46222;SDS011;31943;51.410;7.564;2023-08-01T08:08:19;10.60;;;7.28;;
46222;SDS011;31943;51.410;7.564;2023-08-01T08:10:47;9.95;;;6.75;;
46222;SDS011;31943;51.410;7.564;2023-08-01T08:13:14;10.30;;;6.60;;
46222;SDS011;31943;51.410;7.564;2023-08-01T08:15:42;10.52;;;6.35;;
46222;SDS011;31943;51.410;7.564;2023-08-01T08:18:08;9.73;;;6.00;;
46222;SDS011;31943;51.410;7.564;2023-08-01T08:20:39;8.57;;;5.88;;
46222;SDS011;31943;51.410;7.564;2023-08-01T08:23:07;9.98;;;6.60;;
46222;SDS011;31943;51.410;7.564;2023-08-01T08:25:33;8.27;;;5.82;;
46222;SDS011;31943;51.410;7.564;2023-08-01T08:28:01;9.35;;;5.82;;
46222;SDS011;31943;51.410;7.564;2023-08-01T08:30:27;8.45;;;5.15;;
46222;SDS011;31943;51.410;7.564;2023-08-01T08:32:53;9.57;;;5.60;;
46222;SDS011;31943;51.410;7.564;2023-08-01T08:35:20;9.60;;;5.45;;
46222;SDS011;31943;51.410;7.564;2023-08-01T08:37:47;7.05;;;5.80;;
46222;SDS011;31943;51.410;7.564;2023-08-01T08:40:12;8.98;;;5.05;;
46222;SDS011;31943;51.410;7.564;2023-08-01T08:42:38;10.27;;;5.25;;
46222;SDS011;31943;51.410;7.564;2023-08-01T08:45:06;9.05;;;5.55;;
46222;SDS011;31943;51.410;7.564;2023-08-01T08:47:34;8.45;;;5.38;;
46222;SDS011;31943;51.410;7.564;2023-08-01T08:50:03;9.23;;;4.68;;
46222;SDS011;31943;51.410;7.564;2023-08-01T08:52:30;8.95;;;4.80;;
46222;SDS011;31943;51.410;7.564;2023-08-01T08:54:57;8.70;;;4.80;;
46222;SDS011;31943;51.410;7.564;2023-08-01T08:57:23;11.80;;;5.07;;
46222;SDS011;31943;51.410;7.564;2023-08-01T08:59:50;7.68;;;5.18;;
46222;SDS011;31943;51.410;7.564;2023-08-01T09:02:19;7.03;;;4.63;;
46222;SDS011;31943;51.410;7.564;2023-08-01T09:04:46;6.30;;;4.63;;
46222;SDS011;31943;51.410;7.564;2023-08-01T09:07:13;8.68;;;5.35;;
46222;SDS011;31943;51.410;7.564;2023-08-01T09:09:45;6.45;;;4.70;;
46222;SDS011;31943;51.410;7.564;2023-08-01T09:12:11;6.13;;;4.63;;
46222;SDS011;31943;51.410;7.564;2023-08-01T09:14:38;6.93;;;4.90;;
46222;SDS011;31943;51.410;7.564;2023-08-01T09:17:07;9.13;;;4.82;;
46222;SDS011;31943;51.410;7.564;2023-08-01T09:19:35;7.38;;;4.43;;
46222;SDS011;31943;51.410;7.564;2023-08-01T09:22:01;6.35;;;4.30;;
46222;SDS011;31943;51.410;7.564;2023-08-01T09:24:28;7.57;;;4.07;;
46222;SDS011;31943;51.410;7.564;2023-08-01T09:27:01;5.65;;;3.67;;
46222;SDS011;31943;51.410;7.564;2023-08-01T09:29:28;5.60;;;3.97;;
46222;SDS011;31943;51.410;7.564;2023-08-01T09:31:53;6.18;;;4.00;;
46222;SDS011;31943;51.410;7.564;2023-08-01T09:34:20;6.00;;;4.22;;
46222;SDS011;31943;51.410;7.564;2023-08-01T09:36:48;8.07;;;4.30;;
46222;SDS011;31943;51.410;7.564;2023-08-01T09:39:15;5.45;;;4.40;;
46222;SDS011;31943;51.410;7.564;2023-08-01T09:41:54;7.13;;;3.90;;
46222;SDS011;31943;51.410;7.564;2023-08-01T09:44:21;4.90;;;3.92;;
46222;SDS011;31943;51.410;7.564;2023-08-01T09:46:56;5.20;;;3.60;;
46222;SDS011;31943;51.410;7.564;2023-08-01T09:55:21;5.38;;;3.55;;
46222;SDS011;31943;51.410;7.564;2023-08-01T09:58:32;7.13;;;3.45;;
46222;SDS011;31943;51.410;7.564;2023-08-01T10:01:00;6.18;;;3.20;;
46222;SDS011;31943;51.410;7.564;2023-08-01T10:03:39;7.00;;;3.60;;
46222;SDS011;31943;51.410;7.564;2023-08-01T10:06:09;5.95;;;3.58;;
46222;SDS011;31943;51.410;7.564;2023-08-01T10:08:50;6.38;;;3.25;;
46222;SDS011;31943;51.410;7.564;2023-08-01T10:11:21;6.40;;;3.50;;
46222;SDS011;31943;51.410;7.564;2023-08-01T10:13:48;4.78;;;2.80;;
46222;SDS011;31943;51.410;7.564;2023-08-01T10:16:17;5.85;;;3.10;;
46222;SDS011;31943;51.410;7.564;2023-08-01T10:18:42;6.65;;;2.92;;
46222;SDS011;31943;51.410;7.564;2023-08-01T10:21:17;5.45;;;2.65;;
46222;SDS011;31943;51.410;7.564;2023-08-01T10:23:43;7.40;;;2.90;;
46222;SDS011;31943;51.410;7.564;2023-08-01T10:26:13;5.38;;;2.95;;
46222;SDS011;31943;51.410;7.564;2023-08-01T10:28:41;6.55;;;3.13;;
46222;SDS011;31943;51.410;7.564;2023-08-01T10:31:37;5.15;;;3.08;;
46222;SDS011;31943;51.410;7.564;2023-08-01T10:34:04;6.55;;;3.17;;
46222;SDS011;31943;51.410;7.564;2023-08-01T10:36:32;6.10;;;3.17;;
46222;SDS011;31943;51.410;7.564;2023-08-01T10:39:00;5.18;;;2.30;;
46222;SDS011;31943;51.410;7.564;2023-08-01T10:41:38;4.50;;;3.17;;
46222;SDS011;31943;51.410;7.564;2023-08-01T10:44:06;5.95;;;3.38;;
46222;SDS011;31943;51.410;7.564;2023-08-01T10:49:14;7.15;;;3.45;;
46222;SDS011;31943;51.410;7.564;2023-08-01T10:51:41;6.50;;;3.10;;
46222;SDS011;31943;51.410;7.564;2023-08-01T10:54:17;6.45;;;3.38;;
46222;SDS011;31943;51.410;7.564;2023-08-01T10:56:44;5.68;;;3.40;;
46222;SDS011;31943;51.410;7.564;2023-08-01T10:59:13;6.53;;;3.30;;
46222;SDS011;31943;51.410;7.564;2023-08-01T11:01:43;6.55;;;3.25;;
46222;SDS011;31943;51.410;7.564;2023-08-01T11:04:13;5.18;;;3.00;;
46222;SDS011;31943;51.410;7.564;2023-08-01T11:06:42;6.13;;;4.07;;
46222;SDS011;31943;51.410;7.564;2023-08-01T11:09:14;9.40;;;4.15;;
46222;SDS011;31943;51.410;7.564;2023-08-01T11:11:41;7.47;;;3.65;;
46222;SDS011;31943;51.410;7.564;2023-08-01T11:14:07;6.07;;;3.58;;
46222;SDS011;31943;51.410;7.564;2023-08-01T11:16:34;5.20;;;3.10;;
46222;SDS011;31943;51.410;7.564;2023-08-01T11:19:03;4.55;;;3.10;;
46222;SDS011;31943;51.410;7.564;2023-08-01T11:21:30;4.90;;;3.20;;
46222;SDS011;31943;51.410;7.564;2023-08-01T11:23:56;5.13;;;3.10;;
46222;SDS011;31943;51.410;7.564;2023-08-01T11:26:22;7.18;;;3.67;;
46222;SDS011;31943;51.410;7.564;2023-08-01T11:28:48;5.25;;;3.20;;
46222;SDS011;31943;51.410;7.564;2023-08-01T11:31:13;7.47;;;3.45;;
46222;SDS011;31943;51.410;7.564;2023-08-01T11:33:40;5.40;;;3.10;;
46222;SDS011;31943;51.410;7.564;2023-08-01T11:36:07;7.03;;;3.13;;
46222;SDS011;31943;51.410;7.564;2023-08-01T11:38:34;5.38;;;3.35;;
46222;SDS011;31943;51.410;7.564;2023-08-01T11:41:00;6.95;;;3.53;;
46222;SDS011;31943;51.410;7.564;2023-08-01T11:43:37;5.55;;;3.63;;
46222;SDS011;31943;51.410;7.564;2023-08-01T11:46:03;4.55;;;2.80;;
46222;SDS011;31943;51.410;7.564;2023-08-01T11:48:30;3.72;;;2.17;;
46222;SDS011;31943;51.410;7.564;2023-08-01T11:50:58;3.15;;;2.20;;
46222;SDS011;31943;51.410;7.564;2023-08-01T11:53:24;4.38;;;2.60;;
46222;SDS011;31943;51.410;7.564;2023-08-01T11:55:51;5.65;;;2.60;;
46222;SDS011;31943;51.410;7.564;2023-08-01T11:58:27;8.27;;;2.78;;
46222;SDS011;31943;51.410;7.564;2023-08-01T12:01:00;5.13;;;2.88;;
46222;SDS011;31943;51.410;7.564;2023-08-01T12:03:29;4.25;;;2.67;;
46222;SDS011;31943;51.410;7.564;2023-08-01T12:06:03;4.10;;;2.80;;
46222;SDS011;31943;51.410;7.564;2023-08-01T12:08:31;5.55;;;3.13;;
46222;SDS011;31943;51.410;7.564;2023-08-01T12:10:58;5.32;;;3.05;;
46222;SDS011;31943;51.410;7.564;2023-08-01T12:13:24;6.50;;;3.50;;
46222;SDS011;31943;51.410;7.564;2023-08-01T12:15:51;3.97;;;3.28;;
46222;SDS011;31943;51.410;7.564;2023-08-01T12:18:21;6.03;;;2.85;;
46222;SDS011;31943;51.410;7.564;2023-08-01T12:20:50;8.00;;;3.63;;
46222;SDS011;31943;51.410;7.564;2023-08-01T12:23:20;8.55;;;3.63;;
46222;SDS011;31943;51.410;7.564;2023-08-01T12:25:51;4.90;;;3.38;;
46222;SDS011;31943;51.410;7.564;2023-08-01T12:28:18;6.32;;;4.10;;
46222;SDS011;31943;51.410;7.564;2023-08-01T12:30:44;7.80;;;3.65;;
46222;SDS011;31943;51.410;7.564;2023-08-01T12:33:10;6.53;;;3.67;;
46222;SDS011;31943;51.410;7.564;2023-08-01T12:35:39;5.28;;;3.53;;
46222;SDS011;31943;51.410;7.564;2023-08-01T12:38:17;7.18;;;4.63;;
46222;SDS011;31943;51.410;7.564;2023-08-01T12:40:47;5.70;;;3.60;;
46222;SDS011;31943;51.410;7.564;2023-08-01T12:43:15;6.07;;;4.10;;
46222;SDS011;31943;51.410;7.564;2023-08-01T12:45:43;7.35;;;3.97;;
46222;SDS011;31943;51.410;7.564;2023-08-01T12:48:12;6.13;;;3.60;;
46222;SDS011;31943;51.410;7.564;2023-08-01T12:50:43;7.30;;;4.00;;
46222;SDS011;31943;51.410;7.564;2023-08-01T12:53:13;6.57;;;4.07;;
46222;SDS011;31943;51.410;7.564;2023-08-01T12:55:42;8.43;;;4.18;;
46222;SDS011;31943;51.410;7.564;2023-08-01T12:58:15;5.25;;;3.85;;
46222;SDS011;31943;51.410;7.564;2023-08-01T13:00:44;11.00;;;4.10;;
46222;SDS011;31943;51.410;7.564;2023-08-01T13:03:11;5.68;;;3.40;;
46222;SDS011;31943;51.410;7.564;2023-08-01T13:05:39;6.05;;;3.17;;
46222;SDS011;31943;51.410;7.564;2023-08-01T13:08:12;6.28;;;3.65;;
46222;SDS011;31943;51.410;7.564;2023-08-01T13:10:51;4.78;;;3.45;;
46222;SDS011;31943;51.410;7.564;2023-08-01T13:13:19;6.32;;;3.28;;
46222;SDS011;31943;51.410;7.564;2023-08-01T13:15:46;4.60;;;2.70;;
46222;SDS011;31943;51.410;7.564;2023-08-01T13:18:13;6.00;;;2.70;;
46222;SDS011;31943;51.410;7.564;2023-08-01T13:20:40;5.90;;;2.42;;
46222;SDS011;31943;51.410;7.564;2023-08-01T13:23:07;5.72;;;2.40;;
46222;SDS011;31943;51.410;7.564;2023-08-01T13:25:33;4.75;;;3.10;;
46222;SDS011;31943;51.410;7.564;2023-08-01T13:28:03;4.10;;;2.35;;
46222;SDS011;31943;51.410;7.564;2023-08-01T13:30:29;4.50;;;2.70;;
46222;SDS011;31943;51.410;7.564;2023-08-01T13:32:59;7.15;;;2.72;;
46222;SDS011;31943;51.410;7.564;2023-08-01T13:35:36;3.20;;;2.20;;
46222;SDS011;31943;51.410;7.564;2023-08-01T13:38:03;4.20;;;2.70;;
46222;SDS011;31943;51.410;7.564;2023-08-01T13:40:33;4.95;;;2.70;;
46222;SDS011;31943;51.410;7.564;2023-08-01T13:43:14;4.75;;;2.05;;
46222;SDS011;31943;51.410;7.564;2023-08-01T13:45:43;5.47;;;2.40;;
46222;SDS011;31943;51.410;7.564;2023-08-01T13:48:11;8.13;;;2.33;;
46222;SDS011;31943;51.410;7.564;2023-08-01T13:50:37;5.00;;;2.20;;
46222;SDS011;31943;51.410;7.564;2023-08-01T13:55:54;4.68;;;2.20;;
46222;SDS011;31943;51.410;7.564;2023-08-01T13:58:21;5.43;;;2.28;;
46222;SDS011;31943;51.410;7.564;2023-08-01T14:00:47;5.03;;;1.88;;
46222;SDS011;31943;51.410;7.564;2023-08-01T14:03:13;7.13;;;1.90;;
46222;SDS011;31943;51.410;7.564;2023-08-01T14:05:39;4.28;;;2.00;;
46222;SDS011;31943;51.410;7.564;2023-08-01T14:08:04;5.68;;;1.88;;
46222;SDS011;31943;51.410;7.564;2023-08-01T14:10:30;7.03;;;2.35;;
46222;SDS011;31943;51.410;7.564;2023-08-01T14:12:55;4.13;;;1.70;;
46222;SDS011;31943;51.410;7.564;2023-08-01T14:15:26;3.08;;;1.60;;
46222;SDS011;31943;51.410;7.564;2023-08-01T14:17:51;6.03;;;2.40;;
46222;SDS011;31943;51.410;7.564;2023-08-01T14:20:19;4.65;;;2.13;;
46222;SDS011;31943;51.410;7.564;2023-08-01T14:22:45;4.50;;;2.08;;
46222;SDS011;31943;51.410;7.564;2023-08-01T14:25:11;6.88;;;2.20;;
46222;SDS011;31943;51.410;7.564;2023-08-01T14:27:38;5.80;;;2.25;;
46222;SDS011;31943;51.410;7.564;2023-08-01T14:30:04;4.05;;;1.98;;
46222;SDS011;31943;51.410;7.564;2023-08-01T14:32:33;3.53;;;1.63;;
46222;SDS011;31943;51.410;7.564;2023-08-01T14:34:58;5.60;;;2.15;;
46222;SDS011;31943;51.410;7.564;2023-08-01T14:37:24;5.25;;;1.75;;
46222;SDS011;31943;51.410;7.564;2023-08-01T14:39:49;5.82;;;1.90;;
46222;SDS011;31943;51.410;7.564;2023-08-01T14:42:15;5.60;;;2.17;;
46222;SDS011;31943;51.410;7.564;2023-08-01T14:44:41;9.98;;;1.77;;
46222;SDS011;31943;51.410;7.564;2023-08-01T14:47:06;3.92;;;1.80;;
46222;SDS011;31943;51.410;7.564;2023-08-01T14:49:34;3.88;;;1.70;;
46222;SDS011;31943;51.410;7.564;2023-08-01T14:52:00;5.60;;;1.92;;
46222;SDS011;31943;51.410;7.564;2023-08-01T14:54:25;6.43;;;2.10;;
46222;SDS011;31943;51.410;7.564;2023-08-01T14:56:51;5.60;;;2.22;;